Terminal Aerodrome Forecast
Issued by NWS

Home | Current Version | Previous Version | Text Only | Print | Product List | Glossary On
Versions: 1 2 3 4 5 6 7 8 9 10 11 12 13 14 15 16 17 18 19 20 21 22
000
FTUS45 KABQ 301100
TAFLVS
TAF
KLVS 301139Z 3012/3112 02009KT P6SM SCT035
     FM301900 07012G22KT P6SM VCSH SCT050 BKN100
      TEMPO 3019/3022 VRB20G30KT -TSRA BKN050CB
     FM302200 07011G21KT P6SM VCSH BKN060
     FM310000 07011G21KT P6SM VCTS BKN060CB
     FM310200 02009KT P6SM VCSH SCT015 BKN035
     FM310500 03007KT P6SM VCSH BKN015=

USA.gov is the U.S. government's official web portal to all federal, state and local government web resources and services.